createdAt,value
2022-11-12T00:01:17.017Z,9.90
2022-11-12T00:03:45.038Z,9.90
2022-11-12T00:06:13.033Z,9.90
2022-11-12T00:08:41.099Z,9.90
2022-11-12T00:11:10.445Z,9.90
2022-11-12T00:13:38.442Z,9.90
2022-11-12T00:16:07.285Z,9.90
2022-11-12T00:18:35.284Z,9.90
2022-11-12T00:21:03.262Z,9.90
2022-11-12T00:23:31.255Z,9.90
2022-11-12T00:26:00.757Z,9.90
2022-11-12T00:28:34.792Z,9.90
2022-11-12T00:31:12.729Z,9.90
2022-11-12T00:33:42.151Z,9.90
2022-11-12T00:36:11.016Z,9.90
2022-11-12T00:38:39.042Z,9.90
2022-11-12T00:41:07.329Z,9.90
2022-11-12T00:43:36.702Z,9.80
2022-11-12T00:46:05.083Z,9.90
2022-11-12T00:48:33.065Z,9.90
2022-11-12T00:51:02.618Z,9.90
2022-11-12T00:53:30.604Z,9.90
2022-11-12T00:56:02.663Z,9.90
2022-11-12T00:58:31.512Z,9.90
2022-11-12T01:01:07.685Z,9.90
2022-11-12T01:03:35.995Z,9.90
2022-11-12T01:06:05.713Z,9.90
2022-11-12T01:08:34.297Z,9.90
2022-11-12T01:11:10.023Z,9.80
2022-11-12T01:13:43.835Z,9.80
2022-11-12T01:16:15.967Z,9.80
2022-11-12T01:18:44.594Z,9.80
2022-11-12T01:21:12.810Z,10.00
2022-11-12T01:23:42.627Z,9.90
2022-11-12T01:26:12.697Z,9.80
2022-11-12T01:28:41.123Z,9.80
2022-11-12T01:31:15.556Z,9.80
2022-11-12T01:33:44.441Z,9.80
2022-11-12T01:36:12.972Z,9.80
2022-11-12T01:38:42.277Z,9.80
2022-11-12T01:41:12.656Z,9.80
2022-11-12T01:43:41.069Z,9.80
2022-11-12T01:46:18.433Z,9.80
2022-11-12T01:48:51.049Z,9.70
2022-11-12T01:51:21.554Z,9.80
2022-11-12T01:53:52.568Z,9.70
2022-11-12T01:56:23.377Z,9.80
2022-11-12T01:58:56.590Z,9.70
2022-11-12T02:01:27.033Z,9.70
2022-11-12T02:03:55.208Z,9.70
2022-11-12T02:06:24.537Z,9.70
2022-11-12T02:08:53.203Z,9.70
2022-11-12T02:11:22.687Z,9.70
2022-11-12T02:13:58.575Z,9.70
2022-11-12T02:16:30.213Z,9.70
2022-11-12T02:18:58.270Z,9.70
2022-11-12T02:21:28.742Z,9.70
2022-11-12T02:24:01.467Z,9.60
2022-11-12T02:26:33.997Z,9.60
2022-11-12T02:29:02.552Z,9.60
2022-11-12T02:31:30.803Z,9.60
2022-11-12T02:33:58.806Z,9.60
2022-11-12T02:36:29.037Z,9.60
2022-11-12T02:38:57.330Z,9.50
2022-11-12T02:41:25.761Z,9.60
2022-11-12T02:43:53.805Z,9.50
2022-11-12T02:46:22.010Z,9.60
2022-11-12T02:48:50.147Z,9.60
2022-11-12T02:51:18.159Z,9.60
2022-11-12T02:53:47.539Z,9.70
2022-11-12T02:56:15.572Z,9.60
2022-11-12T02:58:43.596Z,9.60
2022-11-12T03:01:11.683Z,9.70
2022-11-12T03:03:39.772Z,9.60
2022-11-12T03:06:08.716Z,9.60
2022-11-12T03:08:36.714Z,9.50
2022-11-12T03:11:10.444Z,9.50
2022-11-12T03:13:38.901Z,9.60
2022-11-12T03:16:07.171Z,9.50
2022-11-12T03:18:35.344Z,9.50
2022-11-12T03:21:03.460Z,9.50
2022-11-12T03:23:31.842Z,9.50
2022-11-12T03:25:59.927Z,9.50
2022-11-12T03:28:29.526Z,9.50
2022-11-12T03:30:59.870Z,9.50
2022-11-12T03:33:27.944Z,9.50
2022-11-12T03:35:56.056Z,9.50
2022-11-12T03:38:24.408Z,9.50
2022-11-12T03:40:52.680Z,9.50
2022-11-12T03:43:20.699Z,9.40
2022-11-12T03:45:50.087Z,9.50
2022-11-12T03:48:18.200Z,9.50
2022-11-12T03:50:46.208Z,9.40
2022-11-12T03:53:14.496Z,9.50
2022-11-12T03:55:42.637Z,9.60
2022-11-12T03:58:10.664Z,9.40
2022-11-12T04:00:38.670Z,9.40
2022-11-12T04:03:08.057Z,9.40
2022-11-12T04:05:53.306Z,9.40
2022-11-12T04:08:38.284Z,9.40
2022-11-12T04:11:10.214Z,9.40
2022-11-12T04:13:39.001Z,9.30
2022-11-12T04:16:26.935Z,9.30
2022-11-12T04:19:15.744Z,9.30
2022-11-12T04:21:55.783Z,9.20
2022-11-12T04:24:45.650Z,9.30
2022-11-12T04:27:16.315Z,9.30
2022-11-12T04:30:03.053Z,9.20
2022-11-12T04:32:31.946Z,9.20
2022-11-12T04:35:01.956Z,9.10
2022-11-12T04:37:44.455Z,9.10
2022-11-12T04:40:31.603Z,9.00
2022-11-12T04:43:17.124Z,9.00
2022-11-12T04:45:46.622Z,9.00
2022-11-12T04:48:15.106Z,8.90
2022-11-12T04:50:45.781Z,8.90
2022-11-12T04:53:14.099Z,8.90
2022-11-12T04:55:42.193Z,8.90
2022-11-12T04:58:10.200Z,8.90
2022-11-12T05:00:38.234Z,8.80
2022-11-12T05:03:06.259Z,8.80
2022-11-12T05:05:34.414Z,8.80
2022-11-12T05:08:04.546Z,8.80
2022-11-12T05:10:33.229Z,8.80
2022-11-12T05:13:01.271Z,8.80
2022-11-12T05:15:29.296Z,8.70
2022-11-12T05:17:57.325Z,8.90
2022-11-12T05:20:25.357Z,8.70
2022-11-12T05:23:08.318Z,8.60
2022-11-12T05:25:37.802Z,8.60
2022-11-12T05:28:07.169Z,8.60
2022-11-12T05:30:35.838Z,8.60
2022-11-12T05:33:03.878Z,8.60
2022-11-12T05:35:31.879Z,8.50
2022-11-12T05:37:59.853Z,8.60
2022-11-12T05:40:27.895Z,8.60
2022-11-12T05:42:57.262Z,8.50
2022-11-12T05:45:25.212Z,8.50
2022-11-12T05:47:53.202Z,8.50
2022-11-12T05:50:21.228Z,8.50
2022-11-12T05:52:49.270Z,8.50
2022-11-12T05:55:17.361Z,8.50
2022-11-12T05:57:45.345Z,8.50
2022-11-12T06:00:15.854Z,8.50
2022-11-12T06:02:43.990Z,8.50
2022-11-12T06:05:12.037Z,8.50
2022-11-12T06:07:40.831Z,8.50
2022-11-12T06:10:09.790Z,8.80
2022-11-12T06:12:37.785Z,8.40
2022-11-12T06:15:06.639Z,8.50
2022-11-12T06:17:36.042Z,8.40
2022-11-12T06:20:04.429Z,8.40
2022-11-12T06:22:32.424Z,8.40
2022-11-12T06:25:00.422Z,8.40
2022-11-12T06:27:28.409Z,8.30
2022-11-12T06:29:56.445Z,8.40
2022-11-12T06:32:25.188Z,8.30
2022-11-12T06:34:54.569Z,8.30
2022-11-12T06:37:22.855Z,8.30
2022-11-12T06:39:51.164Z,8.30
2022-11-12T06:42:19.407Z,8.30
2022-11-12T06:44:47.426Z,8.30
2022-11-12T06:47:15.492Z,8.20
2022-11-12T06:49:43.518Z,8.30
2022-11-12T06:52:16.574Z,8.30
2022-11-12T06:54:45.043Z,8.30
2022-11-12T06:57:13.228Z,8.30
2022-11-12T06:59:41.287Z,8.30
2022-11-12T07:02:12.310Z,8.30
2022-11-12T07:04:40.334Z,8.30
2022-11-12T07:07:10.908Z,8.30
2022-11-12T07:09:40.689Z,8.30
2022-11-12T07:12:08.950Z,8.20
2022-11-12T07:14:36.985Z,8.30
2022-11-12T07:17:04.978Z,8.20
2022-11-12T07:19:32.971Z,8.30
2022-11-12T07:22:01.015Z,8.30
2022-11-12T07:24:29.062Z,8.40
2022-11-12T07:26:58.405Z,8.40
2022-11-12T07:29:46.167Z,8.40
2022-11-12T07:32:14.557Z,8.50
2022-11-12T07:34:42.577Z,8.40
2022-11-12T07:37:10.584Z,8.40
2022-11-12T07:39:38.597Z,8.40
2022-11-12T07:42:07.990Z,8.40
2022-11-12T07:44:35.960Z,8.40
2022-11-12T07:47:03.953Z,8.40
2022-11-12T07:49:31.965Z,8.40
2022-11-12T07:51:59.942Z,8.40
2022-11-12T07:54:28.002Z,8.40
2022-11-12T07:56:56.080Z,8.40
2022-11-12T07:59:25.430Z,8.40
2022-11-12T08:01:53.484Z,8.40
2022-11-12T08:04:21.562Z,8.40
2022-11-12T08:06:49.911Z,8.40
2022-11-12T08:09:18.048Z,8.40
2022-11-12T08:11:46.054Z,8.40
2022-11-12T08:14:14.061Z,8.40
2022-11-12T08:16:43.509Z,8.40
2022-11-12T08:19:11.508Z,8.50
2022-11-12T08:21:39.527Z,8.40
2022-11-12T08:24:07.993Z,8.60
2022-11-12T08:26:35.986Z,8.50
2022-11-12T08:29:08.360Z,8.50
2022-11-12T08:31:37.396Z,8.50
2022-11-12T08:34:15.213Z,8.50
2022-11-12T08:36:46.678Z,8.50
2022-11-12T08:39:14.742Z,8.60
2022-11-12T08:41:42.768Z,8.60
2022-11-12T08:44:10.834Z,8.60
2022-11-12T08:46:38.908Z,8.60
2022-11-12T08:49:08.286Z,8.60
2022-11-12T08:51:36.291Z,8.60
2022-11-12T08:54:04.386Z,8.60
2022-11-12T08:56:33.944Z,8.60
2022-11-12T08:59:07.068Z,8.70
2022-11-12T09:01:35.712Z,8.70
2022-11-12T09:04:03.872Z,8.70
2022-11-12T09:06:33.288Z,8.70
2022-11-12T09:09:01.402Z,8.70
2022-11-12T09:11:29.428Z,8.80
2022-11-12T09:13:57.612Z,8.80
2022-11-12T09:16:25.693Z,8.80
2022-11-12T09:18:53.729Z,8.80
2022-11-12T09:21:24.773Z,8.70
2022-11-12T09:23:54.267Z,8.80
2022-11-12T09:26:22.416Z,8.80
2022-11-12T09:28:52.371Z,8.80
2022-11-12T09:31:20.461Z,8.80
2022-11-12T09:33:48.519Z,8.70
2022-11-12T09:36:17.645Z,8.70
2022-11-12T09:38:45.692Z,8.70
2022-11-12T09:41:21.441Z,8.70
2022-11-12T09:43:51.952Z,8.70
2022-11-12T09:46:34.748Z,8.80
2022-11-12T09:49:08.722Z,9.10
2022-11-12T09:51:40.226Z,8.80
2022-11-12T09:54:19.222Z,8.80
2022-11-12T09:56:50.092Z,8.70
2022-11-12T09:59:19.133Z,8.80
2022-11-12T10:02:23.462Z,8.80
2022-11-12T10:05:14.637Z,8.80
2022-11-12T10:07:59.933Z,8.80
2022-11-12T10:10:40.382Z,8.90
2022-11-12T10:13:21.941Z,8.80
2022-11-12T10:16:21.952Z,8.90
2022-11-12T10:19:05.448Z,8.80
2022-11-12T10:21:42.198Z,8.80
2022-11-12T10:24:12.376Z,8.80
2022-11-12T10:26:41.165Z,8.80
2022-11-12T10:29:18.106Z,8.80
2022-11-12T10:31:46.233Z,8.80
2022-11-12T10:34:19.206Z,8.80
2022-11-12T10:36:52.981Z,8.80
2022-11-12T10:39:33.619Z,8.90
2022-11-12T10:42:07.250Z,8.90
2022-11-12T10:44:36.811Z,8.90
2022-11-12T10:47:25.612Z,8.90
2022-11-12T10:50:13.950Z,8.90
2022-11-12T10:52:55.266Z,9.00
2022-11-12T10:55:25.798Z,9.00
2022-11-12T10:58:19.703Z,9.00
2022-11-12T11:00:58.725Z,9.10
2022-11-12T11:03:28.860Z,9.00
2022-11-12T11:06:00.310Z,9.00
2022-11-12T11:08:37.084Z,9.10
2022-11-12T11:11:35.675Z,9.10
2022-11-12T11:14:31.749Z,9.10
2022-11-12T11:17:04.634Z,9.10
2022-11-12T11:19:37.649Z,9.20
2022-11-12T11:22:18.705Z,9.10
2022-11-12T11:24:57.353Z,9.20
2022-11-12T11:27:33.081Z,9.20
2022-11-12T11:30:09.059Z,9.20
2022-11-12T11:33:12.859Z,9.20
2022-11-12T11:35:53.973Z,9.30
2022-11-12T11:38:32.789Z,9.30
2022-11-12T11:41:14.545Z,9.20
2022-11-12T11:43:52.564Z,9.30
2022-11-12T11:46:32.601Z,9.30
2022-11-12T11:49:20.380Z,9.40
2022-11-12T11:51:56.893Z,9.30
2022-11-12T11:54:43.511Z,9.30
2022-11-12T11:57:16.394Z,9.30
2022-11-12T11:59:59.880Z,9.30
2022-11-12T12:02:47.445Z,9.30
2022-11-12T12:05:30.575Z,9.30
2022-11-12T12:08:04.059Z,9.40
2022-11-12T12:11:06.856Z,9.50
2022-11-12T12:13:43.341Z,9.40
2022-11-12T12:16:40.558Z,9.40
2022-11-12T12:19:21.300Z,9.40
2022-11-12T12:21:51.925Z,9.50
2022-11-12T12:24:25.952Z,9.40
2022-11-12T12:26:57.256Z,9.40
2022-11-12T12:29:31.081Z,9.50
2022-11-12T12:32:13.223Z,9.50
2022-11-12T12:34:46.118Z,9.50
2022-11-12T12:37:23.669Z,9.50
2022-11-12T12:39:57.370Z,9.50
2022-11-12T12:42:31.011Z,9.50
2022-11-12T12:45:02.157Z,9.50
2022-11-12T12:47:31.984Z,9.60
2022-11-12T12:50:01.601Z,9.50
2022-11-12T12:52:29.577Z,9.50
2022-11-12T12:54:59.646Z,9.50
2022-11-12T12:57:31.279Z,9.60
2022-11-12T13:00:28.779Z,9.60
2022-11-12T13:02:57.521Z,9.50
2022-11-12T13:05:29.855Z,9.60
2022-11-12T13:08:02.439Z,9.50
2022-11-12T13:10:53.158Z,9.60
2022-11-12T13:13:32.376Z,9.50
2022-11-12T13:16:02.360Z,9.50
2022-11-12T13:19:02.427Z,9.40
2022-11-12T13:21:31.222Z,9.50
2022-11-12T13:24:07.810Z,9.50
2022-11-12T13:26:50.098Z,9.50
2022-11-12T13:29:45.693Z,9.40
2022-11-12T13:32:34.455Z,9.50
2022-11-12T13:35:34.765Z,9.50
2022-11-12T13:38:06.361Z,9.50
2022-11-12T13:40:46.409Z,9.50
2022-11-12T13:43:44.316Z,9.50
2022-11-12T13:46:25.988Z,9.50
2022-11-12T13:49:00.106Z,9.50
2022-11-12T13:51:39.352Z,9.50
2022-11-12T13:54:30.037Z,9.50
2022-11-12T13:56:58.131Z,9.60
2022-11-12T13:59:27.805Z,9.60
2022-11-12T14:01:57.445Z,9.60
2022-11-12T14:04:26.384Z,9.60
2022-11-12T14:06:59.949Z,9.60
2022-11-12T14:09:49.177Z,9.60
2022-11-12T14:12:35.714Z,9.60
2022-11-12T14:15:18.089Z,9.60
2022-11-12T14:17:52.346Z,9.60
2022-11-12T14:20:35.293Z,9.70
2022-11-12T14:23:10.017Z,9.60
2022-11-12T14:25:48.201Z,9.60
2022-11-12T14:28:28.319Z,9.90
2022-11-12T14:30:59.083Z,9.60
2022-11-12T14:33:28.634Z,9.60
2022-11-12T14:36:03.095Z,9.70
2022-11-12T14:38:37.016Z,10.10
2022-11-12T14:41:09.259Z,9.60
2022-11-12T14:43:39.387Z,9.60
2022-11-12T14:46:20.255Z,9.60
2022-11-12T14:48:51.656Z,9.60
2022-11-12T14:51:20.584Z,9.60
2022-11-12T14:53:52.766Z,9.60
2022-11-12T14:56:31.229Z,9.60
2022-11-12T14:59:02.725Z,9.60
2022-11-12T15:04:26.027Z,9.60
2022-11-12T15:06:55.755Z,9.60
2022-11-12T15:09:35.860Z,9.60
2022-11-12T15:12:05.452Z,9.60
2022-11-12T15:14:34.455Z,9.70
2022-11-12T15:17:05.627Z,9.60
2022-11-12T15:19:34.411Z,9.60
2022-11-12T15:22:04.192Z,9.60
2022-11-12T15:24:33.733Z,9.60
2022-11-12T15:27:04.310Z,9.60
2022-11-12T15:29:34.838Z,9.60
2022-11-12T15:32:25.258Z,9.60
2022-11-12T15:34:53.303Z,9.60
2022-11-12T15:37:25.844Z,9.60
2022-11-12T15:39:56.599Z,9.60
2022-11-12T15:42:28.777Z,9.60
2022-11-12T15:45:00.909Z,9.70
2022-11-12T15:47:30.641Z,9.70
2022-11-12T15:49:59.935Z,9.70
2022-11-12T15:52:28.483Z,9.70
2022-11-12T15:54:56.497Z,9.60
2022-11-12T15:57:29.553Z,9.70
2022-11-12T16:00:06.559Z,9.70
2022-11-12T16:02:37.150Z,9.70
2022-11-12T16:05:05.394Z,9.90
2022-11-12T16:07:33.398Z,9.70
2022-11-12T16:10:01.407Z,9.60
2022-11-12T16:12:30.486Z,9.60
2022-11-12T16:14:59.455Z,9.60
2022-11-12T16:17:27.518Z,9.60
2022-11-12T16:19:56.847Z,9.60
2022-11-12T16:22:24.972Z,9.60
2022-11-12T16:24:52.969Z,9.60
2022-11-12T16:27:22.928Z,9.70
2022-11-12T16:29:50.922Z,9.60
2022-11-12T16:32:19.202Z,9.60
2022-11-12T16:34:47.215Z,9.70
2022-11-12T16:37:17.217Z,9.60
2022-11-12T16:39:45.716Z,9.70
2022-11-12T16:42:13.964Z,9.70
2022-11-12T16:44:42.126Z,9.70
2022-11-12T16:47:12.733Z,9.70
2022-11-12T16:49:42.741Z,9.60
2022-11-12T16:52:11.267Z,9.60
2022-11-12T16:54:40.632Z,9.60
2022-11-12T16:57:11.403Z,9.60
2022-11-12T16:59:39.481Z,9.60
2022-11-12T17:02:14.400Z,9.60
2022-11-12T17:04:42.388Z,9.60
2022-11-12T17:07:10.514Z,9.60
2022-11-12T17:09:39.907Z,9.60
2022-11-12T17:12:08.242Z,9.60
2022-11-12T17:14:36.611Z,9.50
2022-11-12T17:17:04.648Z,9.60
2022-11-12T17:19:32.735Z,9.60
2022-11-12T17:22:00.717Z,9.50
2022-11-12T17:24:28.914Z,9.60
2022-11-12T17:27:00.145Z,9.50
2022-11-12T17:29:28.497Z,9.50
2022-11-12T17:31:56.489Z,9.50
2022-11-12T17:34:24.791Z,9.50
2022-11-12T17:36:53.017Z,9.50
2022-11-12T17:39:21.033Z,9.50
2022-11-12T17:41:49.046Z,9.50
2022-11-12T17:44:20.176Z,9.50
2022-11-12T17:46:49.164Z,9.50
2022-11-12T17:49:17.818Z,9.50
2022-11-12T17:51:45.927Z,9.50
2022-11-12T17:54:14.025Z,9.50
2022-11-12T17:56:42.035Z,9.50
2022-11-12T17:59:10.245Z,9.50
2022-11-12T18:01:39.755Z,9.40
2022-11-12T18:04:07.762Z,9.50
2022-11-12T18:06:36.308Z,9.40
2022-11-12T18:09:06.688Z,9.40
2022-11-12T18:11:43.042Z,9.40
2022-11-12T18:14:11.747Z,9.40
2022-11-12T18:16:41.696Z,9.40
2022-11-12T18:19:11.109Z,9.40
2022-11-12T18:21:40.346Z,9.40
2022-11-12T18:24:14.321Z,9.30
2022-11-12T18:26:42.991Z,9.30
2022-11-12T18:29:11.062Z,9.30
2022-11-12T18:31:40.785Z,9.30
2022-11-12T18:34:11.653Z,9.40
2022-11-12T18:36:39.695Z,9.30
2022-11-12T18:39:07.713Z,9.30
2022-11-12T18:41:35.741Z,9.30
2022-11-12T18:44:03.765Z,9.30
2022-11-12T18:46:31.798Z,9.30
2022-11-12T18:49:01.143Z,9.30
2022-11-12T18:51:29.154Z,9.30
2022-11-12T18:53:57.139Z,9.30
2022-11-12T18:56:25.147Z,9.30
2022-11-12T18:58:53.118Z,9.20
2022-11-12T19:01:22.910Z,8.70
2022-11-12T19:03:54.979Z,9.20
2022-11-12T19:06:25.030Z,9.30
2022-11-12T19:08:53.290Z,9.30
2022-11-12T19:11:21.907Z,9.20
2022-11-12T19:13:52.652Z,9.20
2022-11-12T19:16:22.850Z,9.30
2022-11-12T19:18:52.082Z,9.20
2022-11-12T19:21:23.240Z,9.30
2022-11-12T19:23:54.763Z,9.30
2022-11-12T19:26:24.150Z,9.20
2022-11-12T19:28:52.655Z,9.20
2022-11-12T19:31:22.899Z,9.20
2022-11-12T19:33:51.643Z,9.20
2022-11-12T19:36:22.176Z,9.20
2022-11-12T19:38:56.765Z,9.30
2022-11-12T19:41:25.416Z,9.20
2022-11-12T19:43:53.813Z,9.20
2022-11-12T19:46:22.165Z,9.20
2022-11-12T19:48:51.176Z,9.20
2022-11-12T19:51:19.248Z,9.30
2022-11-12T19:53:47.414Z,9.60
2022-11-12T19:56:18.854Z,9.20
2022-11-12T19:58:48.111Z,9.10
2022-11-12T20:01:18.645Z,9.20
2022-11-12T20:03:47.361Z,9.10
2022-11-12T20:06:17.750Z,9.20
2022-11-12T20:08:46.285Z,9.10
2022-11-12T20:11:18.400Z,9.10
2022-11-12T20:13:46.817Z,9.00
2022-11-12T20:16:20.791Z,9.10
2022-11-12T20:18:54.371Z,9.10
2022-11-12T20:21:22.621Z,9.00
2022-11-12T20:23:50.640Z,9.10
2022-11-12T20:26:20.054Z,9.00
2022-11-12T20:28:48.417Z,9.00
2022-11-12T20:31:20.485Z,9.00
2022-11-12T20:33:50.907Z,9.10
2022-11-12T20:36:20.927Z,9.00
2022-11-12T20:38:50.547Z,9.00
2022-11-12T20:41:21.646Z,9.00
2022-11-12T20:43:52.882Z,9.00
2022-11-12T20:46:21.100Z,9.00
2022-11-12T20:48:49.348Z,9.00
2022-11-12T20:51:24.592Z,9.00
2022-11-12T20:53:59.481Z,9.00
2022-11-12T20:56:31.265Z,8.90
2022-11-12T20:59:00.237Z,8.90
2022-11-12T21:01:29.605Z,8.90
2022-11-12T21:03:58.471Z,8.80
2022-11-12T21:06:28.477Z,8.70
2022-11-12T21:08:59.245Z,8.80
2022-11-12T21:11:27.272Z,8.70
2022-11-12T21:13:56.618Z,8.80
2022-11-12T21:16:26.020Z,8.70
2022-11-12T21:18:54.034Z,8.70
2022-11-12T21:21:22.057Z,8.70
2022-11-12T21:23:51.149Z,8.70
2022-11-12T21:26:20.428Z,8.70
2022-11-12T21:28:50.190Z,8.70
2022-11-12T21:31:21.888Z,8.80
2022-11-12T21:33:53.240Z,8.70
2022-11-12T21:36:22.873Z,8.60
2022-11-12T21:38:51.136Z,8.60
2022-11-12T21:41:21.208Z,8.60
2022-11-12T21:43:49.802Z,8.60
2022-11-12T21:46:21.073Z,8.60
2022-11-12T21:48:54.781Z,8.70
2022-11-12T21:51:25.122Z,8.60
2022-11-12T21:53:57.420Z,8.70
2022-11-12T21:56:25.703Z,8.70
2022-11-12T21:58:56.045Z,8.70
2022-11-12T22:01:26.583Z,8.60
2022-11-12T22:03:55.954Z,8.60
2022-11-12T22:06:25.960Z,8.60
2022-11-12T22:08:54.551Z,8.60
2022-11-12T22:11:23.559Z,8.60
2022-11-12T22:13:51.588Z,8.60
2022-11-12T22:16:21.403Z,8.60
2022-11-12T22:18:52.614Z,8.60
2022-11-12T22:21:22.383Z,8.60
2022-11-12T22:23:50.831Z,8.60
2022-11-12T22:26:21.910Z,8.60
2022-11-12T22:28:50.174Z,8.60
2022-11-12T22:31:20.329Z,8.60
2022-11-12T22:33:50.000Z,8.60
2022-11-12T22:36:20.409Z,8.60
2022-11-12T22:38:50.405Z,8.60
2022-11-12T22:41:19.743Z,8.70
2022-11-12T22:43:48.700Z,8.60
2022-11-12T22:46:18.597Z,8.60
2022-11-12T22:48:46.652Z,8.60
2022-11-12T22:51:17.986Z,8.60
2022-11-12T22:53:46.082Z,8.60
2022-11-12T22:56:16.121Z,8.60
2022-11-12T22:58:46.118Z,8.60
2022-11-12T23:01:20.331Z,8.60
2022-11-12T23:03:48.705Z,8.60
2022-11-12T23:06:19.128Z,8.60
2022-11-12T23:08:47.558Z,8.60
2022-11-12T23:11:16.845Z,8.60
2022-11-12T23:13:45.181Z,8.60
2022-11-12T23:16:15.759Z,8.60
2022-11-12T23:18:43.996Z,8.60
2022-11-12T23:21:14.252Z,8.60
2022-11-12T23:23:44.262Z,8.60
2022-11-12T23:26:16.067Z,8.60
2022-11-12T23:28:44.128Z,8.60
2022-11-12T23:31:14.317Z,8.60
2022-11-12T23:33:45.700Z,8.60
2022-11-12T23:36:15.446Z,9.10
2022-11-12T23:38:45.357Z,8.50
2022-11-12T23:41:15.253Z,8.70
2022-11-12T23:43:44.037Z,8.50
2022-11-12T23:46:12.829Z,8.50
2022-11-12T23:48:41.099Z,8.50
2022-11-12T23:51:11.544Z,8.50
2022-11-12T23:53:40.525Z,8.60
2022-11-12T23:56:11.858Z,8.60
2022-11-12T23:58:41.827Z,8.60
